Friesland — J8B5613 — position and weather

sailwx.info

Track history (hours):
 
Tides and Currents Weather Stations Pressure Air Temp Water Temp Dewpoint Dewpoint Depression Visibility Wind Speed Wind Dir Waves Ship Positions

Friesland

Last reported at 2017-Dec-17 06:30 UTC. Time now 2017-Dec-17 06:39 UTC.
Position N 38°42' W 009°10'.

Length 29 m; draft 3.8 m.

Type: Tug. MMSI: 377071000.

Date/timePositionNaut miles runAvg speedWind from/ knotsBaromVisibWave heightAir tempDewpointWater temp
2017-Dec-17 06:30N 38°42' W 009°10'0 0.0
2017-Dec-17 05:59N 38°42' W 009°10'0 0.0
2017-Dec-17 05:29N 38°42' W 009°10'0 0.0
2017-Dec-17 05:00N 38°42' W 009°10'0 0.0
2017-Dec-17 04:27N 38°42' W 009°10'0 0.0
2017-Dec-17 03:51N 38°42' W 009°10'0 0.0
2017-Dec-17 03:27N 38°42' W 009°10'0 0.0
2017-Dec-17 02:59N 38°42' W 009°10'0 0.0
2017-Dec-17 02:30N 38°42' W 009°10'0 0.0
2017-Dec-17 02:00N 38°42' W 009°10'0 0.0
2017-Dec-17 01:20N 38°42' W 009°10'0 0.0
2017-Dec-17 00:56N 38°42' W 009°10'0 0.0
2017-Dec-17 00:25N 38°42' W 009°10'0 0.0
2017-Dec-16 23:58N 38°42' W 009°10'0 0.0
2017-Dec-16 23:07N 38°42' W 009°10'0 0.0
2017-Dec-16 22:50N 38°42' W 009°10'0 0.0
2017-Dec-16 22:25N 38°42' W 009°10'0 0.0
2017-Dec-16 21:59N 38°42' W 009°10'0 0.0
2017-Dec-16 21:20N 38°42' W 009°10'0 0.0
2017-Dec-16 21:00N 38°42' W 009°10'0 0.0
2017-Dec-16 20:19N 38°42' W 009°10'0 0.0
2017-Dec-16 20:00N 38°42' W 009°10'0 0.0
2017-Dec-16 19:28N 38°42' W 009°10'0 0.0
2017-Dec-16 19:00N 38°42' W 009°10'0 0.0
2017-Dec-16 18:20N 38°42' W 009°10'0 0.0
2017-Dec-16 17:57N 38°42' W 009°10'0 0.0
2017-Dec-16 17:26N 38°42' W 009°10'0 0.0
2017-Dec-16 16:34N 38°42' W 009°10'0 0.0
2017-Dec-16 16:28N 38°42' W 009°10'0 0.1
2017-Dec-16 15:51N 38°42' W 009°10'0 0.3
2017-Dec-16 15:28N 38°42' W 009°10'0 0.4
2017-Dec-16 14:59N 38°42' W 009°10'0 0.0
2017-Dec-16 14:24N 38°42' W 009°10'0 0.0
2017-Dec-16 13:54N 38°42' W 009°10'0 0.0
2017-Dec-16 13:29N 38°42' W 009°10'0 0.0
2017-Dec-16 12:58N 38°42' W 009°10'0 0.0
2017-Dec-16 12:30N 38°42' W 009°10'0 0.0
2017-Dec-16 11:53N 38°42' W 009°10'0 0.0
2017-Dec-16 11:19N 38°42' W 009°10'0 0.0
2017-Dec-16 10:55N 38°42' W 009°10'0 0.0
2017-Dec-16 10:23N 38°42' W 009°10'0 0.0
2017-Dec-16 10:00N 38°42' W 009°10'0 0.0
2017-Dec-16 09:30N 38°42' W 009°10'0 0.0
2017-Dec-16 09:00N 38°42' W 009°10'0 0.0
2017-Dec-16 08:27N 38°42' W 009°10'0 0.0
2017-Dec-16 07:29N 38°42' W 009°10'0 0.0
2017-Dec-16 06:59N 38°42' W 009°10'2 4.4
2017-Dec-16 06:29N 38°43' W 009°07'0 0.5
2017-Dec-16 05:38N 38°43' W 009°07'1 8.1
2017-Dec-16 05:30N 38°42' W 009°08'4 6.7
2017-Dec-16 04:58N 38°41' W 009°12'0 0.2
2017-Dec-16 04:29N 38°41' W 009°12'1 1.2
2017-Dec-16 04:00N 38°41' W 009°12'2 3.8
2017-Dec-16 03:29N 38°41' W 009°15'2 4.5
2017-Dec-16 02:57N 38°41' W 009°12'3 7.6
2017-Dec-16 02:30N 38°41' W 009°08'2 2.7
2017-Dec-16 01:55N 38°42' W 009°10'1 3.2
2017-Dec-16 01:29N 38°41' W 009°11'0 0.1
2017-Dec-16 00:59N 38°41' W 009°11'1 2.0
2017-Dec-16 00:14N 38°42' W 009°10'0 0.0
2017-Dec-15 23:55N 38°42' W 009°10'0 0.0
2017-Dec-15 23:18N 38°42' W 009°10'0 0.0
2017-Dec-15 22:59N 38°42' W 009°10'0 0.0
2017-Dec-15 22:00N 38°42' W 009°10'0 0.0
2017-Dec-15 21:25N 38°42' W 009°10'0 0.0
2017-Dec-15 20:53N 38°42' W 009°10'0 0.0
2017-Dec-15 20:30N 38°42' W 009°10'0 0.0
2017-Dec-15 19:59N 38°42' W 009°10'2 3.6
2017-Dec-15 19:24N 38°40' W 009°09'1 1.8
2017-Dec-15 19:00N 38°40' W 009°08'0 0.8
2017-Dec-15 18:30N 38°41' W 009°08'2 2.1
2017-Dec-15 17:43N 38°42' W 009°10'0 0.0
2017-Dec-15 17:22N 38°42' W 009°10'0 0.0
2017-Dec-15 16:58N 38°42' W 009°10'0 0.0
2017-Dec-15 15:46N 38°42' W 009°10'0 0.0
2017-Dec-15 15:22N 38°42' W 009°10'1 2.7
2017-Dec-15 15:00N 38°42' W 009°09'1 2.9
2017-Dec-15 14:30N 38°40' W 009°09'0 0.0
2017-Dec-15 13:58N 38°40' W 009°09'0 0.2
2017-Dec-15 13:30N 38°40' W 009°09'0 0.0
2017-Dec-15 13:00N 38°40' W 009°09'2 3.0
2017-Dec-15 12:16N 38°42' W 009°10'0 0.0
2017-Dec-15 12:00N 38°42' W 009°10'0 0.0
2017-Dec-15 11:28N 38°42' W 009°10'0 0.0
2017-Dec-15 10:57N 38°42' W 009°10'0 0.0
2017-Dec-15 10:26N 38°42' W 009°10'0 0.0
2017-Dec-15 09:58N 38°42' W 009°10'0 0.0
2017-Dec-15 09:28N 38°42' W 009°10'0 0.0
2017-Dec-15 08:59N 38°42' W 009°10'0 0.0
2017-Dec-15 08:29N 38°42' W 009°10'0 0.0
2017-Dec-15 07:59N 38°42' W 009°10'0 0.0
2017-Dec-15 07:30N 38°42' W 009°10'0 0.0
2017-Dec-15 06:36N 38°42' W 009°10'0 0.0
2017-Dec-15 06:29N 38°42' W 009°10'0 0.0
2017-Dec-15 06:00N 38°42' W 009°10'0 0.0
2017-Dec-15 05:26N 38°42' W 009°10'0 0.0
2017-Dec-15 04:53N 38°42' W 009°10'0 0.0
2017-Dec-15 04:21N 38°42' W 009°10'0 0.0
2017-Dec-15 04:00N 38°42' W 009°10'0 0.0
2017-Dec-15 02:29N 38°42' W 009°10'0 0.0
2017-Dec-15 00:56N 38°42' W 009°10'0 0.0
2017-Dec-15 00:30N 38°42' W 009°10'0 0.0
2017-Dec-14 18:14N 38°42' W 009°10'0 0.0
2017-Dec-14 17:59N 38°42' W 009°10'0 0.0
2017-Dec-14 17:10N 38°42' W 009°10'0 0.0
2017-Dec-14 16:47N 38°42' W 009°10'0 0.0
2017-Dec-14 16:28N 38°42' W 009°10'0 0.0
2017-Dec-14 15:56N 38°42' W 009°10'0 0.0
2017-Dec-14 15:00N 38°42' W 009°10'0 0.0
2017-Dec-14 14:27N 38°42' W 009°10'0 0.0
2017-Dec-14 13:55N 38°42' W 009°10'0 0.0
2017-Dec-14 13:29N 38°42' W 009°10'1 2.2
2017-Dec-14 12:50N 38°41' W 009°11'1 2.3
2017-Dec-14 12:30N 38°41' W 009°12'1 1.4
2017-Dec-14 11:53N 38°41' W 009°13'2 4.1
2017-Dec-14 11:23N 38°42' W 009°10'1 1.5
2017-Dec-14 10:57N 38°42' W 009°10'0 0.0
2017-Dec-14 10:30N 38°42' W 009°10'0 0.0
2017-Dec-14 09:58N 38°42' W 009°10'0 0.0
2017-Dec-14 09:30N 38°42' W 009°10'0 0.0
2017-Dec-14 08:59N 38°42' W 009°10'0 0.0
2017-Dec-14 08:26N 38°42' W 009°10'0 0.0
2017-Dec-14 07:47N 38°42' W 009°10'0 0.0
2017-Dec-14 07:23N 38°42' W 009°10'0 0.0
2017-Dec-14 06:59N 38°42' W 009°10'1 1.7
2017-Dec-14 06:26N 38°42' W 009°11'0 0.9
2017-Dec-14 05:59N 38°42' W 009°11'1 2.2
2017-Dec-14 05:28N 38°42' W 009°10'0 0.0
2017-Dec-14 05:00N 38°42' W 009°10'0 0.0
2017-Dec-14 04:30N 38°42' W 009°10'0 0.0
2017-Dec-14 03:59N 38°42' W 009°10'0 0.0
2017-Dec-14 03:30N 38°42' W 009°10'0 0.0
2017-Dec-14 03:00N 38°42' W 009°10'0 0.0
2017-Dec-14 02:28N 38°42' W 009°10'0 0.0
2017-Dec-14 01:59N 38°42' W 009°10'0 0.0
2017-Dec-14 01:30N 38°42' W 009°10'2 3.1
2017-Dec-14 00:59N 38°41' W 009°11'0 0.0
2017-Dec-14 00:28N 38°41' W 009°11'0 0.1
2017-Dec-14 00:00N 38°41' W 009°11'2 3.2
2017-Dec-13 23:30N 38°42' W 009°10'0 0.0
2017-Dec-13 22:59N 38°42' W 009°10'0 0.0
2017-Dec-13 22:28N 38°42' W 009°10'0 0.0
2017-Dec-13 22:00N 38°42' W 009°10'0 0.0
2017-Dec-13 21:30N 38°42' W 009°10'0 0.0
2017-Dec-13 21:00N 38°42' W 009°10'0 0.0
2017-Dec-13 20:30N 38°42' W 009°10'0 0.0
2017-Dec-13 20:00N 38°42' W 009°10'0 0.0
2017-Dec-13 19:27N 38°42' W 009°10'0 0.0
2017-Dec-13 19:00N 38°42' W 009°10'0 0.0
2017-Dec-13 18:29N 38°42' W 009°10'0 0.0
2017-Dec-13 17:59N 38°42' W 009°10'0 0.0
2017-Dec-13 17:24N 38°42' W 009°10'0 0.0
2017-Dec-13 16:59N 38°42' W 009°10'0 0.0
2017-Dec-13 16:26N 38°42' W 009°10'0 0.0
2017-Dec-13 15:58N 38°42' W 009°10'0 0.0
2017-Dec-13 15:29N 38°42' W 009°10'0 0.0
2017-Dec-13 14:58N 38°42' W 009°10'0 0.0
2017-Dec-13 14:30N 38°42' W 009°10'0 0.3
2017-Dec-13 13:58N 38°42' W 009°09'1 1.3
2017-Dec-13 13:30N 38°42' W 009°10'0 0.6
2017-Dec-13 13:00N 38°42' W 009°10'0 0.0
2017-Dec-13 12:27N 38°42' W 009°10'0 0.1
2017-Dec-13 11:58N 38°42' W 009°11'1 1.6
2017-Dec-13 11:25N 38°42' W 009°09'0 0.4
2017-Dec-13 10:59N 38°42' W 009°10'0 0.0
2017-Dec-13 10:30N 38°42' W 009°10'0 0.2
2017-Dec-13 10:00N 38°42' W 009°10'0 0.2
2017-Dec-13 09:30N 38°42' W 009°10'0 0.0
2017-Dec-13 08:59N 38°42' W 009°10'0 0.0
2017-Dec-13 08:30N 38°42' W 009°10'0 0.0
2017-Dec-13 08:00N 38°42' W 009°10'0 0.0
2017-Dec-13 07:27N 38°42' W 009°10'0 0.0
2017-Dec-13 06:56N 38°42' W 009°10'0 0.0
2017-Dec-13 06:28N 38°42' W 009°10'0 0.0
2017-Dec-13 05:56N 38°42' W 009°10'0 0.0
2017-Dec-13 05:30N 38°42' W 009°10'0 0.0
2017-Dec-13 04:59N 38°42' W 009°10'0 0.0
2017-Dec-13 04:30N 38°42' W 009°10'0 0.0
2017-Dec-13 03:59N 38°42' W 009°10'0 0.0
2017-Dec-13 03:30N 38°42' W 009°10'0 0.0
2017-Dec-13 03:00N 38°42' W 009°10'0 0.0
2017-Dec-13 02:30N 38°42' W 009°10'0 0.5
2017-Dec-13 02:00N 38°42' W 009°10'0 0.4
2017-Dec-13 01:29N 38°42' W 009°10'0 0.0
2017-Dec-13 00:55N 38°42' W 009°10'0 0.0
2017-Dec-13 00:30N 38°42' W 009°10'0 0.0
2017-Dec-13 00:00N 38°42' W 009°10'0 0.0
2017-Dec-12 23:30N 38°42' W 009°10'0 0.0
2017-Dec-12 23:00N 38°42' W 009°10'0 0.0
2017-Dec-12 22:30N 38°42' W 009°10'0 0.0
2017-Dec-12 21:58N 38°42' W 009°10'0 0.0
2017-Dec-12 21:30N 38°42' W 009°10'0 0.0
2017-Dec-12 20:57N 38°42' W 009°10'0 0.6
2017-Dec-12 20:27N 38°42' W 009°09'2 3.9
2017-Dec-12 19:57N 38°40' W 009°09'0 0.2
2017-Dec-12 19:25N 38°40' W 009°09'0 0.8
2017-Dec-12 19:00N 38°40' W 009°08'0 0.7
2017-Dec-12 18:27N 38°40' W 009°09'1 1.5
2017-Dec-12 18:00N 38°41' W 009°08'1 1.2
2017-Dec-12 17:29N 38°40' W 009°09'0 0.8
2017-Dec-12 17:00N 38°40' W 009°08'2 3.1
2017-Dec-12 16:29N 38°42' W 009°09'0 1.0
2017-Dec-12 16:00N 38°42' W 009°10'0 0.0
2017-Dec-12 15:28N 38°42' W 009°10'0 0.0
2017-Dec-12 15:00N 38°42' W 009°10'0 0.0
2017-Dec-12 14:24N 38°42' W 009°10'0 0.0
2017-Dec-12 13:57N 38°42' W 009°10'0 0.0
2017-Dec-12 13:28N 38°42' W 009°10'0 0.0
2017-Dec-12 13:00N 38°42' W 009°10'0 0.0
2017-Dec-12 12:30N 38°42' W 009°10'0 0.0
2017-Dec-12 11:59N 38°42' W 009°10'0 0.0
2017-Dec-12 11:30N 38°42' W 009°10'0 0.0
2017-Dec-12 10:59N 38°42' W 009°10'0 0.0
2017-Dec-12 10:30N 38°42' W 009°10'1 2.9
2017-Dec-12 10:00N 38°41' W 009°08'1 1.6
2017-Dec-12 09:28N 38°40' W 009°09'1 1.7
2017-Dec-12 09:00N 38°41' W 009°08'1 2.8
2017-Dec-12 08:28N 38°42' W 009°10'1 2.6
2017-Dec-12 08:00N 38°41' W 009°11'0 0.6
2017-Dec-12 07:30N 38°42' W 009°11'1 1.9
2017-Dec-12 06:55N 38°42' W 009°10'0 0.0
2017-Dec-12 06:30N 38°42' W 009°10'0 0.0
2017-Dec-12 05:58N 38°42' W 009°10'0 0.0
2017-Dec-12 05:29N 38°42' W 009°10'0 0.0
2017-Dec-12 05:00N 38°42' W 009°10'0 0.0
2017-Dec-12 04:29N 38°42' W 009°10'0 0.0
2017-Dec-12 04:00N 38°42' W 009°10'0 0.0
2017-Dec-12 03:26N 38°42' W 009°10'0 0.0
2017-Dec-12 03:00N 38°42' W 009°10'0 0.0
2017-Dec-12 02:30N 38°42' W 009°10'0 0.0
2017-Dec-12 01:58N 38°42' W 009°10'0 0.0
2017-Dec-12 01:30N 38°42' W 009°10'0 0.0
2017-Dec-12 01:00N 38°42' W 009°10'0 0.0
2017-Dec-12 00:25N 38°42' W 009°10'0 0.0
2017-Dec-11 23:59N 38°42' W 009°10'0 0.0
2017-Dec-11 23:28N 38°42' W 009°10'0 0.0
2017-Dec-11 22:58N 38°42' W 009°10'0 0.0
2017-Dec-11 22:30N 38°42' W 009°10'0 0.0
2017-Dec-11 22:00N 38°42' W 009°10'0 0.0
2017-Dec-11 21:30N 38°42' W 009°10'0 0.0
2017-Dec-11 20:58N 38°42' W 009°10'0 0.0
2017-Dec-11 20:30N 38°42' W 009°10'0 0.0
2017-Dec-11 19:58N 38°42' W 009°10'0 0.0
2017-Dec-11 19:29N 38°42' W 009°10'0 0.0
2017-Dec-11 18:58N 38°42' W 009°10'0 0.0
2017-Dec-11 18:29N 38°42' W 009°10'0 0.9
2017-Dec-11 18:00N 38°42' W 009°09'2 3.1
2017-Dec-11 17:29N 38°40' W 009°08'0 1.0
2017-Dec-11 17:00N 38°40' W 009°09'1 2.6
2017-Dec-11 16:30N 38°42' W 009°09'1 1.8
2017-Dec-11 16:00N 38°42' W 009°10'0 0.0
2017-Dec-11 15:29N 38°42' W 009°10'0 0.0
2017-Dec-11 15:00N 38°42' W 009°10'0 0.0
2017-Dec-11 14:29N 38°42' W 009°10'2 4.0
2017-Dec-11 14:00N 38°40' W 009°09'0 0.4
2017-Dec-11 13:29N 38°40' W 009°09'0 0.5
2017-Dec-11 13:00N 38°40' W 009°09'0 0.3
2017-Dec-11 12:29N 38°40' W 009°09'0 0.0
2017-Dec-11 11:58N 38°40' W 009°09'2 4.6
2017-Dec-11 11:30N 38°42' W 009°07'0 0.8
2017-Dec-11 10:59N 38°43' W 009°07'2 3.7
2017-Dec-11 10:30N 38°42' W 009°09'1 1.8
2017-Dec-11 10:00N 38°41' W 009°08'1 2.5
2017-Dec-11 09:30N 38°40' W 009°09'2 4.0
2017-Dec-11 09:00N 38°42' W 009°07'2 4.1
2017-Dec-11 08:30N 38°42' W 009°10'0 0.1
2017-Dec-11 07:59N 38°42' W 009°10'0 0.0
2017-Dec-11 07:30N 38°42' W 009°10'1 2.9
2017-Dec-11 07:00N 38°42' W 009°08'0 0.9
2017-Dec-11 06:30N 38°43' W 009°07'1 1.3
2017-Dec-11 06:00N 38°42' W 009°08'1 2.5
2017-Dec-11 05:30N 38°42' W 009°10'0 0.0
2017-Dec-11 05:00N 38°42' W 009°10'0 0.0
2017-Dec-11 04:27N 38°42' W 009°10'0 0.0
2017-Dec-11 04:00N 38°42' W 009°10'0 0.0
2017-Dec-11 03:29N 38°42' W 009°10'0 0.0
2017-Dec-11 02:59N 38°42' W 009°10'0 0.0
2017-Dec-11 02:30N 38°42' W 009°10'0 0.0
2017-Dec-11 02:00N 38°42' W 009°10'0 0.0
2017-Dec-11 01:30N 38°42' W 009°10'0 0.0
2017-Dec-11 01:00N 38°42' W 009°10'0 0.0
2017-Dec-11 00:30N 38°42' W 009°10'0 0.0
2017-Dec-10 23:59N 38°42' W 009°10'0 0.0
2017-Dec-10 23:30N 38°42' W 009°10'0 0.0
2017-Dec-10 22:58N 38°42' W 009°10'0 0.7
2017-Dec-10 22:30N 38°42' W 009°10'0 0.6
2017-Dec-10 21:55N 38°42' W 009°10'1 2.1
2017-Dec-10 21:26N 38°42' W 009°11'1 2.7
2017-Dec-10 21:00N 38°42' W 009°10'1 2.6
2017-Dec-10 20:30N 38°42' W 009°08'1 2.5
2017-Dec-10 19:55N 38°43' W 009°07'0 0.1
2017-Dec-10 18:14N 38°43' W 009°07'1 4.5
2017-Dec-10 18:00N 38°42' W 009°07'2 3.6
2017-Dec-10 17:30N 38°42' W 009°10'0 0.0
2017-Dec-10 17:00N 38°42' W 009°10'0 0.0
2017-Dec-10 16:29N 38°42' W 009°10'0 0.0
2017-Dec-10 16:00N 38°42' W 009°10'0 0.0
2017-Dec-10 15:29N 38°42' W 009°10'0 0.0
2017-Dec-10 15:00N 38°42' W 009°10'0 0.0
2017-Dec-10 14:28N 38°42' W 009°10'0 0.0
2017-Dec-10 14:00N 38°42' W 009°10'0 0.0
2017-Dec-10 13:26N 38°42' W 009°10'0 0.0
2017-Dec-10 12:56N 38°42' W 009°10'0 0.0
2017-Dec-10 12:26N 38°42' W 009°10'0 0.0
2017-Dec-10 12:00N 38°42' W 009°10'0 0.0
2017-Dec-10 11:30N 38°42' W 009°10'0 0.0
2017-Dec-10 10:58N 38°42' W 009°10'0 0.0
2017-Dec-10 10:29N 38°42' W 009°10'0 0.0
2017-Dec-10 10:00N 38°42' W 009°10'1 1.3
2017-Dec-10 09:30N 38°42' W 009°10'0 0.0
2017-Dec-10 09:00N 38°42' W 009°10'1 1.1
2017-Dec-10 08:30N 38°41' W 009°11'1 2.0
2017-Dec-10 08:00N 38°42' W 009°10'0 0.4
2017-Dec-10 07:30N 38°42' W 009°10'0 0.0
2017-Dec-10 06:59N 38°42' W 009°10'0 0.0
2017-Dec-10 06:28N 38°42' W 009°10'0 0.0
2017-Dec-10 06:00N 38°42' W 009°10'0 0.0
2017-Dec-10 05:30N 38°42' W 009°10'0 0.0
2017-Dec-10 04:57N 38°42' W 009°10'0 0.0
2017-Dec-10 04:28N 38°42' W 009°10'0 0.0
2017-Dec-10 04:00N 38°42' W 009°10'0 0.0
2017-Dec-10 03:29N 38°42' W 009°10'0 0.0
2017-Dec-10 03:00N 38°42' W 009°10'0 0.0
2017-Dec-10 02:30N 38°42' W 009°10'2 3.4
2017-Dec-10 02:00N 38°42' W 009°12'2 3.9
2017-Dec-10 01:27N 38°41' W 009°14'0 0.3
2017-Dec-10 01:00N 38°41' W 009°14'1 1.1
2017-Dec-10 00:28N 38°41' W 009°15'2 3.3
2017-Dec-09 23:57N 38°41' W 009°13'3 5.8
2017-Dec-09 23:30N 38°42' W 009°10'0 0.0
2017-Dec-09 22:59N 38°42' W 009°10'0 0.0
2017-Dec-09 22:29N 38°42' W 009°10'0 0.0
2017-Dec-09 22:00N 38°42' W 009°10'0 0.0
2017-Dec-09 21:29N 38°42' W 009°10'0 0.0
2017-Dec-09 21:00N 38°42' W 009°10'0 0.0
2017-Dec-09 20:30N 38°42' W 009°10'2 3.2
2017-Dec-09 19:59N 38°41' W 009°11'0 0.5
2017-Dec-09 19:27N 38°41' W 009°11'2 3.6
2017-Dec-09 19:00N 38°41' W 009°13'1 2.6
2017-Dec-09 18:30N 38°41' W 009°12'2 3.6
2017-Dec-09 17:58N 38°42' W 009°10'0 0.0
2017-Dec-09 17:30N 38°42' W 009°10'0 0.0
2017-Dec-09 17:00N 38°42' W 009°10'0 0.0
2017-Dec-09 16:30N 38°42' W 009°10'0 0.0
2017-Dec-09 15:55N 38°42' W 009°10'0 0.0
2017-Dec-09 15:22N 38°42' W 009°10'0 0.0
2017-Dec-09 14:57N 38°42' W 009°10'0 0.0
2017-Dec-09 14:27N 38°42' W 009°10'0 0.0
2017-Dec-09 14:00N 38°42' W 009°10'0 0.0
2017-Dec-09 13:30N 38°42' W 009°10'0 0.0
2017-Dec-09 13:00N 38°42' W 009°10'0 0.0
2017-Dec-09 12:29N 38°42' W 009°10'0 0.0
2017-Dec-09 12:00N 38°42' W 009°10'0 0.0
2017-Dec-09 11:30N 38°42' W 009°10'0 0.0
2017-Dec-09 10:59N 38°42' W 009°10'0 0.0
2017-Dec-09 10:30N 38°42' W 009°10'0 0.0
2017-Dec-09 09:59N 38°42' W 009°10'0 0.0
2017-Dec-09 09:30N 38°42' W 009°10'0 0.0
2017-Dec-09 09:00N 38°42' W 009°10'0 0.0
2017-Dec-09 08:26N 38°42' W 009°10'0 0.0
2017-Dec-09 08:00N 38°42' W 009°10'0 0.0
2017-Dec-09 07:30N 38°42' W 009°10'0 0.0
2017-Dec-09 07:00N 38°42' W 009°10'0 0.0
2017-Dec-09 06:30N 38°42' W 009°10'0 0.0
2017-Dec-09 05:59N 38°42' W 009°10'0 0.0
2017-Dec-09 05:28N 38°42' W 009°10'0 0.0
2017-Dec-09 05:00N 38°42' W 009°10'0 0.0
2017-Dec-09 04:30N 38°42' W 009°10'0 0.0
2017-Dec-09 04:00N 38°42' W 009°10'0 0.0
2017-Dec-09 03:30N 38°42' W 009°10'0 0.0
2017-Dec-09 03:00N 38°42' W 009°10'0 0.0
2017-Dec-09 02:30N 38°42' W 009°10'0 0.0
2017-Dec-09 01:59N 38°42' W 009°10'0 0.0
2017-Dec-09 01:30N 38°42' W 009°10'0 0.0
2017-Dec-09 00:59N 38°42' W 009°10'0 0.0
2017-Dec-09 00:30N 38°42' W 009°10'0 0.0
2017-Dec-08 23:59N 38°42' W 009°10'0 0.0
2017-Dec-08 23:30N 38°42' W 009°10'0 0.0
2017-Dec-08 23:00N 38°42' W 009°10'0 0.0
2017-Dec-08 22:28N 38°42' W 009°10'0 0.0
2017-Dec-08 22:00N 38°42' W 009°10'1 1.4
2017-Dec-08 21:30N 38°42' W 009°09'2 2.7
2017-Dec-08 20:45N 38°43' W 009°07'2 7.0
2017-Dec-08 20:30N 38°42' W 009°08'1 2.4
2017-Dec-08 20:00N 38°42' W 009°10'0 0.0
2017-Dec-08 19:30N 38°42' W 009°10'0 0.0
2017-Dec-08 18:59N 38°42' W 009°10'0 0.0
2017-Dec-08 18:30N 38°42' W 009°10'0 0.0
2017-Dec-08 18:00N 38°42' W 009°10'0 0.0
2017-Dec-08 17:30N 38°42' W 009°10'0 0.0
2017-Dec-08 16:54N 38°42' W 009°10'0 0.0
2017-Dec-08 16:30N 38°42' W 009°10'0 0.0
2017-Dec-08 16:00N 38°42' W 009°10'0 0.0
2017-Dec-08 15:30N 38°42' W 009°10'0 0.0
2017-Dec-08 14:59N 38°42' W 009°10'0 0.0
2017-Dec-08 14:30N 38°42' W 009°10'0 0.0
2017-Dec-08 13:58N 38°42' W 009°10'0 0.0
2017-Dec-08 13:30N 38°42' W 009°10'0 0.0
2017-Dec-08 12:59N 38°42' W 009°10'0 0.0
2017-Dec-08 12:27N 38°42' W 009°10'0 0.0
2017-Dec-08 11:59N 38°42' W 009°10'0 0.0
2017-Dec-08 11:30N 38°42' W 009°10'0 0.0
2017-Dec-08 11:00N 38°42' W 009°10'0 0.0
2017-Dec-08 10:30N 38°42' W 009°10'0 0.0
2017-Dec-08 09:59N 38°42' W 009°10'0 0.0
2017-Dec-08 09:29N 38°42' W 009°10'0 0.0
2017-Dec-08 09:00N 38°42' W 009°10'0 0.0
2017-Dec-08 08:27N 38°42' W 009°10'0 0.0
2017-Dec-08 07:58N 38°42' W 009°10'0 0.0
2017-Dec-08 07:30N 38°42' W 009°10'0 0.0
2017-Dec-08 07:00N 38°42' W 009°10'0 0.0
2017-Dec-08 06:28N 38°42' W 009°10'0 0.0
2017-Dec-08 06:00N 38°42' W 009°10'0 0.0
2017-Dec-08 05:30N 38°42' W 009°10'0 0.0
2017-Dec-08 05:00N 38°42' W 009°10'0 0.0
2017-Dec-08 04:30N 38°42' W 009°10'0 0.0
2017-Dec-08 04:00N 38°42' W 009°10'0 0.0
2017-Dec-08 03:30N 38°42' W 009°10'0 0.0
2017-Dec-08 02:54N 38°42' W 009°10'0 0.0
2017-Dec-08 02:29N 38°42' W 009°10'0 0.0
2017-Dec-08 01:57N 38°42' W 009°10'0 0.0
2017-Dec-08 01:30N 38°42' W 009°10'0 0.0
2017-Dec-08 01:00N 38°42' W 009°10'0 0.0
2017-Dec-08 00:28N 38°42' W 009°10'0 0.0
2017-Dec-08 00:00N 38°42' W 009°10'0 0.0
2017-Dec-07 23:29N 38°42' W 009°10'0 0.0
2017-Dec-07 23:00N 38°42' W 009°10'0 0.0
2017-Dec-07 22:30N 38°42' W 009°10'0 0.0
2017-Dec-07 22:00N 38°42' W 009°10'0 0.0
2017-Dec-07 21:24N 38°42' W 009°10'0 0.0
2017-Dec-07 20:59N 38°42' W 009°10'0 0.0
2017-Dec-07 20:26N 38°42' W 009°10'0 0.0
2017-Dec-07 19:57N 38°42' W 009°10'0 0.0
2017-Dec-07 19:29N 38°42' W 009°10'0 0.0
2017-Dec-07 18:58N 38°42' W 009°10'0 0.0
2017-Dec-07 18:28N 38°42' W 009°10'0 0.0
2017-Dec-07 18:00N 38°42' W 009°10'0 0.0
2017-Dec-07 17:30N 38°42' W 009°10'0 0.0
2017-Dec-07 17:00N 38°42' W 009°10'0 0.0
2017-Dec-07 16:30N 38°42' W 009°10'0 0.0
2017-Dec-07 16:00N 38°42' W 009°10'0 0.0
2017-Dec-07 15:26N 38°42' W 009°10'0 0.0
2017-Dec-07 14:55N 38°42' W 009°10'0 0.0
2017-Dec-07 14:25N 38°42' W 009°10'0 0.0
2017-Dec-07 14:00N 38°42' W 009°10'0 0.0
2017-Dec-07 13:30N 38°42' W 009°10'0 0.0
2017-Dec-07 13:00N 38°42' W 009°10'0 0.0
2017-Dec-07 12:28N 38°42' W 009°10'0 0.0
2017-Dec-07 12:00N 38°42' W 009°10'0 0.0
2017-Dec-07 11:30N 38°42' W 009°10'0 0.0
2017-Dec-07 11:00N 38°42' W 009°10'0 0.0
2017-Dec-07 10:30N 38°42' W 009°10'  
Track history (hours):
 
Tides and Currents Weather Stations Pressure Air Temp Water Temp Dewpoint Dewpoint Depression Visibility Wind Speed Wind Dir Waves Ship Positions

Friesland

Last reported at 2017-Dec-17 06:30 UTC. Time now 2017-Dec-17 06:39 UTC.
Position N 38°42' W 009°10'.

Length 29 m; draft 3.8 m.

Type: Tug. MMSI: 377071000.

Date/timePositionNaut miles runAvg speedWind from/ knotsBaromVisibWave heightAir tempDewpointWater temp
2017-Dec-17 06:30N 38°42' W 009°10'0 0.0
2017-Dec-17 05:59N 38°42' W 009°10'0 0.0
2017-Dec-17 05:29N 38°42' W 009°10'0 0.0
2017-Dec-17 05:00N 38°42' W 009°10'0 0.0
2017-Dec-17 04:27N 38°42' W 009°10'0 0.0
2017-Dec-17 03:51N 38°42' W 009°10'0 0.0
2017-Dec-17 03:27N 38°42' W 009°10'0 0.0
2017-Dec-17 02:59N 38°42' W 009°10'0 0.0
2017-Dec-17 02:30N 38°42' W 009°10'0 0.0
2017-Dec-17 02:00N 38°42' W 009°10'0 0.0
2017-Dec-17 01:20N 38°42' W 009°10'0 0.0
2017-Dec-17 00:56N 38°42' W 009°10'0 0.0
2017-Dec-17 00:25N 38°42' W 009°10'0 0.0
2017-Dec-16 23:58N 38°42' W 009°10'0 0.0
2017-Dec-16 23:07N 38°42' W 009°10'0 0.0
2017-Dec-16 22:50N 38°42' W 009°10'0 0.0
2017-Dec-16 22:25N 38°42' W 009°10'0 0.0
2017-Dec-16 21:59N 38°42' W 009°10'0 0.0
2017-Dec-16 21:20N 38°42' W 009°10'0 0.0
2017-Dec-16 21:00N 38°42' W 009°10'0 0.0
2017-Dec-16 20:19N 38°42' W 009°10'0 0.0
2017-Dec-16 20:00N 38°42' W 009°10'0 0.0
2017-Dec-16 19:28N 38°42' W 009°10'0 0.0
2017-Dec-16 19:00N 38°42' W 009°10'0 0.0
2017-Dec-16 18:20N 38°42' W 009°10'0 0.0
2017-Dec-16 17:57N 38°42' W 009°10'0 0.0
2017-Dec-16 17:26N 38°42' W 009°10'0 0.0
2017-Dec-16 16:34N 38°42' W 009°10'0 0.0
2017-Dec-16 16:28N 38°42' W 009°10'0 0.1
2017-Dec-16 15:51N 38°42' W 009°10'0 0.3
2017-Dec-16 15:28N 38°42' W 009°10'0 0.4
2017-Dec-16 14:59N 38°42' W 009°10'0 0.0
2017-Dec-16 14:24N 38°42' W 009°10'0 0.0
2017-Dec-16 13:54N 38°42' W 009°10'0 0.0
2017-Dec-16 13:29N 38°42' W 009°10'0 0.0
2017-Dec-16 12:58N 38°42' W 009°10'0 0.0
2017-Dec-16 12:30N 38°42' W 009°10'0 0.0
2017-Dec-16 11:53N 38°42' W 009°10'0 0.0
2017-Dec-16 11:19N 38°42' W 009°10'0 0.0
2017-Dec-16 10:55N 38°42' W 009°10'0 0.0
2017-Dec-16 10:23N 38°42' W 009°10'0 0.0
2017-Dec-16 10:00N 38°42' W 009°10'0 0.0
2017-Dec-16 09:30N 38°42' W 009°10'0 0.0
2017-Dec-16 09:00N 38°42' W 009°10'0 0.0
2017-Dec-16 08:27N 38°42' W 009°10'0 0.0
2017-Dec-16 07:29N 38°42' W 009°10'0 0.0
2017-Dec-16 06:59N 38°42' W 009°10'2 4.4
2017-Dec-16 06:29N 38°43' W 009°07'0 0.5
2017-Dec-16 05:38N 38°43' W 009°07'1 8.1
2017-Dec-16 05:30N 38°42' W 009°08'4 6.7
2017-Dec-16 04:58N 38°41' W 009°12'0 0.2
2017-Dec-16 04:29N 38°41' W 009°12'1 1.2
2017-Dec-16 04:00N 38°41' W 009°12'2 3.8
2017-Dec-16 03:29N 38°41' W 009°15'2 4.5
2017-Dec-16 02:57N 38°41' W 009°12'3 7.6
2017-Dec-16 02:30N 38°41' W 009°08'2 2.7
2017-Dec-16 01:55N 38°42' W 009°10'1 3.2
2017-Dec-16 01:29N 38°41' W 009°11'0 0.1
2017-Dec-16 00:59N 38°41' W 009°11'1 2.0
2017-Dec-16 00:14N 38°42' W 009°10'0 0.0
2017-Dec-15 23:55N 38°42' W 009°10'0 0.0
2017-Dec-15 23:18N 38°42' W 009°10'0 0.0
2017-Dec-15 22:59N 38°42' W 009°10'0 0.0
2017-Dec-15 22:00N 38°42' W 009°10'0 0.0
2017-Dec-15 21:25N 38°42' W 009°10'0 0.0
2017-Dec-15 20:53N 38°42' W 009°10'0 0.0
2017-Dec-15 20:30N 38°42' W 009°10'0 0.0
2017-Dec-15 19:59N 38°42' W 009°10'2 3.6
2017-Dec-15 19:24N 38°40' W 009°09'1 1.8
2017-Dec-15 19:00N 38°40' W 009°08'0 0.8
2017-Dec-15 18:30N 38°41' W 009°08'2 2.1
2017-Dec-15 17:43N 38°42' W 009°10'0 0.0
2017-Dec-15 17:22N 38°42' W 009°10'0 0.0
2017-Dec-15 16:58N 38°42' W 009°10'0 0.0
2017-Dec-15 15:46N 38°42' W 009°10'0 0.0
2017-Dec-15 15:22N 38°42' W 009°10'1 2.7
2017-Dec-15 15:00N 38°42' W 009°09'1 2.9
2017-Dec-15 14:30N 38°40' W 009°09'0 0.0
2017-Dec-15 13:58N 38°40' W 009°09'0 0.2
2017-Dec-15 13:30N 38°40' W 009°09'0 0.0
2017-Dec-15 13:00N 38°40' W 009°09'2 3.0
2017-Dec-15 12:16N 38°42' W 009°10'0 0.0
2017-Dec-15 12:00N 38°42' W 009°10'0 0.0
2017-Dec-15 11:28N 38°42' W 009°10'0 0.0
2017-Dec-15 10:57N 38°42' W 009°10'0 0.0
2017-Dec-15 10:26N 38°42' W 009°10'0 0.0
2017-Dec-15 09:58N 38°42' W 009°10'0 0.0
2017-Dec-15 09:28N 38°42' W 009°10'0 0.0
2017-Dec-15 08:59N 38°42' W 009°10'0 0.0
2017-Dec-15 08:29N 38°42' W 009°10'0 0.0
2017-Dec-15 07:59N 38°42' W 009°10'0 0.0
2017-Dec-15 07:30N 38°42' W 009°10'0 0.0
2017-Dec-15 06:36N 38°42' W 009°10'0 0.0
2017-Dec-15 06:29N 38°42' W 009°10'0 0.0
2017-Dec-15 06:00N 38°42' W 009°10'0 0.0
2017-Dec-15 05:26N 38°42' W 009°10'0 0.0
2017-Dec-15 04:53N 38°42' W 009°10'0 0.0
2017-Dec-15 04:21N 38°42' W 009°10'0 0.0
2017-Dec-15 04:00N 38°42' W 009°10'0 0.0
2017-Dec-15 02:29N 38°42' W 009°10'0 0.0
2017-Dec-15 00:56N 38°42' W 009°10'0 0.0
2017-Dec-15 00:30N 38°42' W 009°10'0 0.0
2017-Dec-14 18:14N 38°42' W 009°10'0 0.0
2017-Dec-14 17:59N 38°42' W 009°10'0 0.0
2017-Dec-14 17:10N 38°42' W 009°10'0 0.0
2017-Dec-14 16:47N 38°42' W 009°10'0 0.0
2017-Dec-14 16:28N 38°42' W 009°10'0 0.0
2017-Dec-14 15:56N 38°42' W 009°10'0 0.0
2017-Dec-14 15:00N 38°42' W 009°10'0 0.0
2017-Dec-14 14:27N 38°42' W 009°10'0 0.0
2017-Dec-14 13:55N 38°42' W 009°10'0 0.0
2017-Dec-14 13:29N 38°42' W 009°10'1 2.2
2017-Dec-14 12:50N 38°41' W 009°11'1 2.3
2017-Dec-14 12:30N 38°41' W 009°12'1 1.4
2017-Dec-14 11:53N 38°41' W 009°13'2 4.1
2017-Dec-14 11:23N 38°42' W 009°10'1 1.5
2017-Dec-14 10:57N 38°42' W 009°10'0 0.0
2017-Dec-14 10:30N 38°42' W 009°10'0 0.0
2017-Dec-14 09:58N 38°42' W 009°10'0 0.0
2017-Dec-14 09:30N 38°42' W 009°10'0 0.0
2017-Dec-14 08:59N 38°42' W 009°10'0 0.0
2017-Dec-14 08:26N 38°42' W 009°10'0 0.0
2017-Dec-14 07:47N 38°42' W 009°10'0 0.0
2017-Dec-14 07:23N 38°42' W 009°10'0 0.0
2017-Dec-14 06:59N 38°42' W 009°10'1 1.7
2017-Dec-14 06:26N 38°42' W 009°11'0 0.9
2017-Dec-14 05:59N 38°42' W 009°11'1 2.2
2017-Dec-14 05:28N 38°42' W 009°10'0 0.0
2017-Dec-14 05:00N 38°42' W 009°10'0 0.0
2017-Dec-14 04:30N 38°42' W 009°10'0 0.0
2017-Dec-14 03:59N 38°42' W 009°10'0 0.0
2017-Dec-14 03:30N 38°42' W 009°10'0 0.0
2017-Dec-14 03:00N 38°42' W 009°10'0 0.0
2017-Dec-14 02:28N 38°42' W 009°10'0 0.0
2017-Dec-14 01:59N 38°42' W 009°10'0 0.0
2017-Dec-14 01:30N 38°42' W 009°10'2 3.1
2017-Dec-14 00:59N 38°41' W 009°11'0 0.0
2017-Dec-14 00:28N 38°41' W 009°11'0 0.1
2017-Dec-14 00:00N 38°41' W 009°11'2 3.2
2017-Dec-13 23:30N 38°42' W 009°10'0 0.0
2017-Dec-13 22:59N 38°42' W 009°10'0 0.0
2017-Dec-13 22:28N 38°42' W 009°10'0 0.0
2017-Dec-13 22:00N 38°42' W 009°10'0 0.0
2017-Dec-13 21:30N 38°42' W 009°10'0 0.0
2017-Dec-13 21:00N 38°42' W 009°10'0 0.0
2017-Dec-13 20:30N 38°42' W 009°10'0 0.0
2017-Dec-13 20:00N 38°42' W 009°10'0 0.0
2017-Dec-13 19:27N 38°42' W 009°10'0 0.0
2017-Dec-13 19:00N 38°42' W 009°10'0 0.0
2017-Dec-13 18:29N 38°42' W 009°10'0 0.0
2017-Dec-13 17:59N 38°42' W 009°10'0 0.0
2017-Dec-13 17:24N 38°42' W 009°10'0 0.0
2017-Dec-13 16:59N 38°42' W 009°10'0 0.0
2017-Dec-13 16:26N 38°42' W 009°10'0 0.0
2017-Dec-13 15:58N 38°42' W 009°10'0 0.0
2017-Dec-13 15:29N 38°42' W 009°10'0 0.0
2017-Dec-13 14:58N 38°42' W 009°10'0 0.0
2017-Dec-13 14:30N 38°42' W 009°10'0 0.3
2017-Dec-13 13:58N 38°42' W 009°09'1 1.3
2017-Dec-13 13:30N 38°42' W 009°10'0 0.6
2017-Dec-13 13:00N 38°42' W 009°10'0 0.0
2017-Dec-13 12:27N 38°42' W 009°10'0 0.1
2017-Dec-13 11:58N 38°42' W 009°11'1 1.6
2017-Dec-13 11:25N 38°42' W 009°09'0 0.4
2017-Dec-13 10:59N 38°42' W 009°10'0 0.0
2017-Dec-13 10:30N 38°42' W 009°10'0 0.2
2017-Dec-13 10:00N 38°42' W 009°10'0 0.2
2017-Dec-13 09:30N 38°42' W 009°10'0 0.0
2017-Dec-13 08:59N 38°42' W 009°10'0 0.0
2017-Dec-13 08:30N 38°42' W 009°10'0 0.0
2017-Dec-13 08:00N 38°42' W 009°10'0 0.0
2017-Dec-13 07:27N 38°42' W 009°10'0 0.0
2017-Dec-13 06:56N 38°42' W 009°10'0 0.0
2017-Dec-13 06:28N 38°42' W 009°10'0 0.0
2017-Dec-13 05:56N 38°42' W 009°10'0 0.0
2017-Dec-13 05:30N 38°42' W 009°10'0 0.0
2017-Dec-13 04:59N 38°42' W 009°10'0 0.0
2017-Dec-13 04:30N 38°42' W 009°10'0 0.0
2017-Dec-13 03:59N 38°42' W 009°10'0 0.0
2017-Dec-13 03:30N 38°42' W 009°10'0 0.0
2017-Dec-13 03:00N 38°42' W 009°10'0 0.0
2017-Dec-13 02:30N 38°42' W 009°10'0 0.5
2017-Dec-13 02:00N 38°42' W 009°10'0 0.4
2017-Dec-13 01:29N 38°42' W 009°10'0 0.0
2017-Dec-13 00:55N 38°42' W 009°10'0 0.0
2017-Dec-13 00:30N 38°42' W 009°10'0 0.0
2017-Dec-13 00:00N 38°42' W 009°10'0 0.0
2017-Dec-12 23:30N 38°42' W 009°10'0 0.0
2017-Dec-12 23:00N 38°42' W 009°10'0 0.0
2017-Dec-12 22:30N 38°42' W 009°10'0 0.0
2017-Dec-12 21:58N 38°42' W 009°10'0 0.0
2017-Dec-12 21:30N 38°42' W 009°10'0 0.0
2017-Dec-12 20:57N 38°42' W 009°10'0 0.6
2017-Dec-12 20:27N 38°42' W 009°09'2 3.9
2017-Dec-12 19:57N 38°40' W 009°09'0 0.2
2017-Dec-12 19:25N 38°40' W 009°09'0 0.8
2017-Dec-12 19:00N 38°40' W 009°08'0 0.7
2017-Dec-12 18:27N 38°40' W 009°09'1 1.5
2017-Dec-12 18:00N 38°41' W 009°08'1 1.2
2017-Dec-12 17:29N 38°40' W 009°09'0 0.8
2017-Dec-12 17:00N 38°40' W 009°08'2 3.1
2017-Dec-12 16:29N 38°42' W 009°09'0 1.0
2017-Dec-12 16:00N 38°42' W 009°10'0 0.0
2017-Dec-12 15:28N 38°42' W 009°10'0 0.0
2017-Dec-12 15:00N 38°42' W 009°10'0 0.0
2017-Dec-12 14:24N 38°42' W 009°10'0 0.0
2017-Dec-12 13:57N 38°42' W 009°10'0 0.0
2017-Dec-12 13:28N 38°42' W 009°10'0 0.0
2017-Dec-12 13:00N 38°42' W 009°10'0 0.0
2017-Dec-12 12:30N 38°42' W 009°10'0 0.0
2017-Dec-12 11:59N 38°42' W 009°10'0 0.0
2017-Dec-12 11:30N 38°42' W 009°10'0 0.0
2017-Dec-12 10:59N 38°42' W 009°10'0 0.0
2017-Dec-12 10:30N 38°42' W 009°10'1 2.9
2017-Dec-12 10:00N 38°41' W 009°08'1 1.6
2017-Dec-12 09:28N 38°40' W 009°09'1 1.7
2017-Dec-12 09:00N 38°41' W 009°08'1 2.8
2017-Dec-12 08:28N 38°42' W 009°10'1 2.6
2017-Dec-12 08:00N 38°41' W 009°11'0 0.6
2017-Dec-12 07:30N 38°42' W 009°11'1 1.9
2017-Dec-12 06:55N 38°42' W 009°10'0 0.0
2017-Dec-12 06:30N 38°42' W 009°10'0 0.0
2017-Dec-12 05:58N 38°42' W 009°10'0 0.0
2017-Dec-12 05:29N 38°42' W 009°10'0 0.0
2017-Dec-12 05:00N 38°42' W 009°10'0 0.0
2017-Dec-12 04:29N 38°42' W 009°10'0 0.0
2017-Dec-12 04:00N 38°42' W 009°10'0 0.0
2017-Dec-12 03:26N 38°42' W 009°10'0 0.0
2017-Dec-12 03:00N 38°42' W 009°10'0 0.0
2017-Dec-12 02:30N 38°42' W 009°10'0 0.0
2017-Dec-12 01:58N 38°42' W 009°10'0 0.0
2017-Dec-12 01:30N 38°42' W 009°10'0 0.0
2017-Dec-12 01:00N 38°42' W 009°10'0 0.0
2017-Dec-12 00:25N 38°42' W 009°10'0 0.0
2017-Dec-11 23:59N 38°42' W 009°10'0 0.0
2017-Dec-11 23:28N 38°42' W 009°10'0 0.0
2017-Dec-11 22:58N 38°42' W 009°10'0 0.0
2017-Dec-11 22:30N 38°42' W 009°10'0 0.0
2017-Dec-11 22:00N 38°42' W 009°10'0 0.0
2017-Dec-11 21:30N 38°42' W 009°10'0 0.0
2017-Dec-11 20:58N 38°42' W 009°10'0 0.0
2017-Dec-11 20:30N 38°42' W 009°10'0 0.0
2017-Dec-11 19:58N 38°42' W 009°10'0 0.0
2017-Dec-11 19:29N 38°42' W 009°10'0 0.0
2017-Dec-11 18:58N 38°42' W 009°10'0 0.0
2017-Dec-11 18:29N 38°42' W 009°10'0 0.9
2017-Dec-11 18:00N 38°42' W 009°09'2 3.1
2017-Dec-11 17:29N 38°40' W 009°08'0 1.0
2017-Dec-11 17:00N 38°40' W 009°09'1 2.6
2017-Dec-11 16:30N 38°42' W 009°09'1 1.8
2017-Dec-11 16:00N 38°42' W 009°10'0 0.0
2017-Dec-11 15:29N 38°42' W 009°10'0 0.0
2017-Dec-11 15:00N 38°42' W 009°10'0 0.0
2017-Dec-11 14:29N 38°42' W 009°10'2 4.0
2017-Dec-11 14:00N 38°40' W 009°09'0 0.4
2017-Dec-11 13:29N 38°40' W 009°09'0 0.5
2017-Dec-11 13:00N 38°40' W 009°09'0 0.3
2017-Dec-11 12:29N 38°40' W 009°09'0 0.0
2017-Dec-11 11:58N 38°40' W 009°09'2 4.6
2017-Dec-11 11:30N 38°42' W 009°07'0 0.8
2017-Dec-11 10:59N 38°43' W 009°07'2 3.7
2017-Dec-11 10:30N 38°42' W 009°09'1 1.8
2017-Dec-11 10:00N 38°41' W 009°08'1 2.5
2017-Dec-11 09:30N 38°40' W 009°09'2 4.0
2017-Dec-11 09:00N 38°42' W 009°07'2 4.1
2017-Dec-11 08:30N 38°42' W 009°10'0 0.1
2017-Dec-11 07:59N 38°42' W 009°10'0 0.0
2017-Dec-11 07:30N 38°42' W 009°10'1 2.9
2017-Dec-11 07:00N 38°42' W 009°08'0 0.9
2017-Dec-11 06:30N 38°43' W 009°07'1 1.3
2017-Dec-11 06:00N 38°42' W 009°08'1 2.5
2017-Dec-11 05:30N 38°42' W 009°10'0 0.0
2017-Dec-11 05:00N 38°42' W 009°10'0 0.0
2017-Dec-11 04:27N 38°42' W 009°10'0 0.0
2017-Dec-11 04:00N 38°42' W 009°10'0 0.0
2017-Dec-11 03:29N 38°42' W 009°10'0 0.0
2017-Dec-11 02:59N 38°42' W 009°10'0 0.0
2017-Dec-11 02:30N 38°42' W 009°10'0 0.0
2017-Dec-11 02:00N 38°42' W 009°10'0 0.0
2017-Dec-11 01:30N 38°42' W 009°10'0 0.0
2017-Dec-11 01:00N 38°42' W 009°10'0 0.0
2017-Dec-11 00:30N 38°42' W 009°10'0 0.0
2017-Dec-10 23:59N 38°42' W 009°10'0 0.0
2017-Dec-10 23:30N 38°42' W 009°10'0 0.0
2017-Dec-10 22:58N 38°42' W 009°10'0 0.7
2017-Dec-10 22:30N 38°42' W 009°10'0 0.6
2017-Dec-10 21:55N 38°42' W 009°10'1 2.1
2017-Dec-10 21:26N 38°42' W 009°11'1 2.7
2017-Dec-10 21:00N 38°42' W 009°10'1 2.6
2017-Dec-10 20:30N 38°42' W 009°08'1 2.5
2017-Dec-10 19:55N 38°43' W 009°07'0 0.1
2017-Dec-10 18:14N 38°43' W 009°07'1 4.5
2017-Dec-10 18:00N 38°42' W 009°07'2 3.6
2017-Dec-10 17:30N 38°42' W 009°10'0 0.0
2017-Dec-10 17:00N 38°42' W 009°10'0 0.0
2017-Dec-10 16:29N 38°42' W 009°10'0 0.0
2017-Dec-10 16:00N 38°42' W 009°10'0 0.0
2017-Dec-10 15:29N 38°42' W 009°10'0 0.0
2017-Dec-10 15:00N 38°42' W 009°10'0 0.0
2017-Dec-10 14:28N 38°42' W 009°10'0 0.0
2017-Dec-10 14:00N 38°42' W 009°10'0 0.0
2017-Dec-10 13:26N 38°42' W 009°10'0 0.0
2017-Dec-10 12:56N 38°42' W 009°10'0 0.0
2017-Dec-10 12:26N 38°42' W 009°10'0 0.0
2017-Dec-10 12:00N 38°42' W 009°10'0 0.0
2017-Dec-10 11:30N 38°42' W 009°10'0 0.0
2017-Dec-10 10:58N 38°42' W 009°10'0 0.0
2017-Dec-10 10:29N 38°42' W 009°10'0 0.0
2017-Dec-10 10:00N 38°42' W 009°10'1 1.3
2017-Dec-10 09:30N 38°42' W 009°10'0 0.0
2017-Dec-10 09:00N 38°42' W 009°10'1 1.1
2017-Dec-10 08:30N 38°41' W 009°11'1 2.0
2017-Dec-10 08:00N 38°42' W 009°10'0 0.4
2017-Dec-10 07:30N 38°42' W 009°10'0 0.0
2017-Dec-10 06:59N 38°42' W 009°10'0 0.0
2017-Dec-10 06:28N 38°42' W 009°10'0 0.0
2017-Dec-10 06:00N 38°42' W 009°10'0 0.0
2017-Dec-10 05:30N 38°42' W 009°10'0 0.0
2017-Dec-10 04:57N 38°42' W 009°10'0 0.0
2017-Dec-10 04:28N 38°42' W 009°10'0 0.0
2017-Dec-10 04:00N 38°42' W 009°10'0 0.0
2017-Dec-10 03:29N 38°42' W 009°10'0 0.0
2017-Dec-10 03:00N 38°42' W 009°10'0 0.0
2017-Dec-10 02:30N 38°42' W 009°10'2 3.4
2017-Dec-10 02:00N 38°42' W 009°12'2 3.9
2017-Dec-10 01:27N 38°41' W 009°14'0 0.3
2017-Dec-10 01:00N 38°41' W 009°14'1 1.1
2017-Dec-10 00:28N 38°41' W 009°15'2 3.3
2017-Dec-09 23:57N 38°41' W 009°13'3 5.8
2017-Dec-09 23:30N 38°42' W 009°10'0 0.0
2017-Dec-09 22:59N 38°42' W 009°10'0 0.0
2017-Dec-09 22:29N 38°42' W 009°10'0 0.0
2017-Dec-09 22:00N 38°42' W 009°10'0 0.0
2017-Dec-09 21:29N 38°42' W 009°10'0 0.0
2017-Dec-09 21:00N 38°42' W 009°10'0 0.0
2017-Dec-09 20:30N 38°42' W 009°10'2 3.2
2017-Dec-09 19:59N 38°41' W 009°11'0 0.5
2017-Dec-09 19:27N 38°41' W 009°11'2 3.6
2017-Dec-09 19:00N 38°41' W 009°13'1 2.6
2017-Dec-09 18:30N 38°41' W 009°12'2 3.6
2017-Dec-09 17:58N 38°42' W 009°10'0 0.0
2017-Dec-09 17:30N 38°42' W 009°10'0 0.0
2017-Dec-09 17:00N 38°42' W 009°10'0 0.0
2017-Dec-09 16:30N 38°42' W 009°10'0 0.0
2017-Dec-09 15:55N 38°42' W 009°10'0 0.0
2017-Dec-09 15:22N 38°42' W 009°10'0 0.0
2017-Dec-09 14:57N 38°42' W 009°10'0 0.0
2017-Dec-09 14:27N 38°42' W 009°10'0 0.0
2017-Dec-09 14:00N 38°42' W 009°10'0 0.0
2017-Dec-09 13:30N 38°42' W 009°10'0 0.0
2017-Dec-09 13:00N 38°42' W 009°10'0 0.0
2017-Dec-09 12:29N 38°42' W 009°10'0 0.0
2017-Dec-09 12:00N 38°42' W 009°10'0 0.0
2017-Dec-09 11:30N 38°42' W 009°10'0 0.0
2017-Dec-09 10:59N 38°42' W 009°10'0 0.0
2017-Dec-09 10:30N 38°42' W 009°10'0 0.0
2017-Dec-09 09:59N 38°42' W 009°10'0 0.0
2017-Dec-09 09:30N 38°42' W 009°10'0 0.0
2017-Dec-09 09:00N 38°42' W 009°10'0 0.0
2017-Dec-09 08:26N 38°42' W 009°10'0 0.0
2017-Dec-09 08:00N 38°42' W 009°10'0 0.0
2017-Dec-09 07:30N 38°42' W 009°10'0 0.0
2017-Dec-09 07:00N 38°42' W 009°10'0 0.0
2017-Dec-09 06:30N 38°42' W 009°10'0 0.0
2017-Dec-09 05:59N 38°42' W 009°10'0 0.0
2017-Dec-09 05:28N 38°42' W 009°10'0 0.0
2017-Dec-09 05:00N 38°42' W 009°10'0 0.0
2017-Dec-09 04:30N 38°42' W 009°10'0 0.0
2017-Dec-09 04:00N 38°42' W 009°10'0 0.0
2017-Dec-09 03:30N 38°42' W 009°10'0 0.0
2017-Dec-09 03:00N 38°42' W 009°10'0 0.0
2017-Dec-09 02:30N 38°42' W 009°10'0 0.0
2017-Dec-09 01:59N 38°42' W 009°10'0 0.0
2017-Dec-09 01:30N 38°42' W 009°10'0 0.0
2017-Dec-09 00:59N 38°42' W 009°10'0 0.0
2017-Dec-09 00:30N 38°42' W 009°10'0 0.0
2017-Dec-08 23:59N 38°42' W 009°10'0 0.0
2017-Dec-08 23:30N 38°42' W 009°10'0 0.0
2017-Dec-08 23:00N 38°42' W 009°10'0 0.0
2017-Dec-08 22:28N 38°42' W 009°10'0 0.0
2017-Dec-08 22:00N 38°42' W 009°10'1 1.4
2017-Dec-08 21:30N 38°42' W 009°09'2 2.7
2017-Dec-08 20:45N 38°43' W 009°07'2 7.0
2017-Dec-08 20:30N 38°42' W 009°08'1 2.4
2017-Dec-08 20:00N 38°42' W 009°10'0 0.0
2017-Dec-08 19:30N 38°42' W 009°10'0 0.0
2017-Dec-08 18:59N 38°42' W 009°10'0 0.0
2017-Dec-08 18:30N 38°42' W 009°10'0 0.0
2017-Dec-08 18:00N 38°42' W 009°10'0 0.0
2017-Dec-08 17:30N 38°42' W 009°10'0 0.0
2017-Dec-08 16:54N 38°42' W 009°10'0 0.0
2017-Dec-08 16:30N 38°42' W 009°10'0 0.0
2017-Dec-08 16:00N 38°42' W 009°10'0 0.0
2017-Dec-08 15:30N 38°42' W 009°10'0 0.0
2017-Dec-08 14:59N 38°42' W 009°10'0 0.0
2017-Dec-08 14:30N 38°42' W 009°10'0 0.0
2017-Dec-08 13:58N 38°42' W 009°10'0 0.0
2017-Dec-08 13:30N 38°42' W 009°10'0 0.0
2017-Dec-08 12:59N 38°42' W 009°10'0 0.0
2017-Dec-08 12:27N 38°42' W 009°10'0 0.0
2017-Dec-08 11:59N 38°42' W 009°10'0 0.0
2017-Dec-08 11:30N 38°42' W 009°10'0 0.0
2017-Dec-08 11:00N 38°42' W 009°10'0 0.0
2017-Dec-08 10:30N 38°42' W 009°10'0 0.0
2017-Dec-08 09:59N 38°42' W 009°10'0 0.0
2017-Dec-08 09:29N 38°42' W 009°10'0 0.0
2017-Dec-08 09:00N 38°42' W 009°10'0 0.0
2017-Dec-08 08:27N 38°42' W 009°10'0 0.0
2017-Dec-08 07:58N 38°42' W 009°10'0 0.0
2017-Dec-08 07:30N 38°42' W 009°10'0 0.0
2017-Dec-08 07:00N 38°42' W 009°10'0 0.0
2017-Dec-08 06:28N 38°42' W 009°10'0 0.0
2017-Dec-08 06:00N 38°42' W 009°10'0 0.0
2017-Dec-08 05:30N 38°42' W 009°10'0 0.0
2017-Dec-08 05:00N 38°42' W 009°10'0 0.0
2017-Dec-08 04:30N 38°42' W 009°10'0 0.0
2017-Dec-08 04:00N 38°42' W 009°10'0 0.0
2017-Dec-08 03:30N 38°42' W 009°10'0 0.0
2017-Dec-08 02:54N 38°42' W 009°10'0 0.0
2017-Dec-08 02:29N 38°42' W 009°10'0 0.0
2017-Dec-08 01:57N 38°42' W 009°10'0 0.0
2017-Dec-08 01:30N 38°42' W 009°10'0 0.0
2017-Dec-08 01:00N 38°42' W 009°10'0 0.0
2017-Dec-08 00:28N 38°42' W 009°10'0 0.0
2017-Dec-08 00:00N 38°42' W 009°10'0 0.0
2017-Dec-07 23:29N 38°42' W 009°10'0 0.0
2017-Dec-07 23:00N 38°42' W 009°10'0 0.0
2017-Dec-07 22:30N 38°42' W 009°10'0 0.0
2017-Dec-07 22:00N 38°42' W 009°10'0 0.0
2017-Dec-07 21:24N 38°42' W 009°10'0 0.0
2017-Dec-07 20:59N 38°42' W 009°10'0 0.0
2017-Dec-07 20:26N 38°42' W 009°10'0 0.0
2017-Dec-07 19:57N 38°42' W 009°10'0 0.0
2017-Dec-07 19:29N 38°42' W 009°10'0 0.0
2017-Dec-07 18:58N 38°42' W 009°10'0 0.0
2017-Dec-07 18:28N 38°42' W 009°10'0 0.0
2017-Dec-07 18:00N 38°42' W 009°10'0 0.0
2017-Dec-07 17:30N 38°42' W 009°10'0 0.0
2017-Dec-07 17:00N 38°42' W 009°10'0 0.0
2017-Dec-07 16:30N 38°42' W 009°10'0 0.0
2017-Dec-07 16:00N 38°42' W 009°10'0 0.0
2017-Dec-07 15:26N 38°42' W 009°10'0 0.0
2017-Dec-07 14:55N 38°42' W 009°10'0 0.0
2017-Dec-07 14:25N 38°42' W 009°10'0 0.0
2017-Dec-07 14:00N 38°42' W 009°10'0 0.0
2017-Dec-07 13:30N 38°42' W 009°10'0 0.0
2017-Dec-07 13:00N 38°42' W 009°10'0 0.0
2017-Dec-07 12:28N 38°42' W 009°10'0 0.0
2017-Dec-07 12:00N 38°42' W 009°10'0 0.0
2017-Dec-07 11:30N 38°42' W 009°10'0 0.0
2017-Dec-07 11:00N 38°42' W 009°10'0 0.0
2017-Dec-07 10:30N 38°42' W 009°10'  

Dump ship's entire track history